sensor_id;sensor_type;location;lat;lon;timestamp;P1;durP1;ratioP1;P2;durP2;ratioP2
19187;SDS011;9726;52.198;8.792;2023-03-13T00:02:00;34.53;;;5.60;;
19187;SDS011;9726;52.198;8.792;2023-03-13T00:04:27;33.30;;;5.90;;
19187;SDS011;9726;52.198;8.792;2023-03-13T00:06:55;51.93;;;6.23;;
19187;SDS011;9726;52.198;8.792;2023-03-13T00:09:22;37.67;;;8.03;;
19187;SDS011;9726;52.198;8.792;2023-03-13T00:11:50;38.00;;;6.30;;
19187;SDS011;9726;52.198;8.792;2023-03-13T00:14:17;39.57;;;5.87;;
19187;SDS011;9726;52.198;8.792;2023-03-13T00:16:45;37.03;;;5.60;;
19187;SDS011;9726;52.198;8.792;2023-03-13T00:19:14;40.07;;;6.70;;
19187;SDS011;9726;52.198;8.792;2023-03-13T00:21:41;35.47;;;5.87;;
19187;SDS011;9726;52.198;8.792;2023-03-13T00:24:09;36.03;;;5.27;;
19187;SDS011;9726;52.198;8.792;2023-03-13T00:26:37;36.13;;;6.40;;
19187;SDS011;9726;52.198;8.792;2023-03-13T00:29:05;30.47;;;5.60;;
19187;SDS011;9726;52.198;8.792;2023-03-13T00:31:33;30.27;;;5.43;;
19187;SDS011;9726;52.198;8.792;2023-03-13T00:34:01;46.47;;;6.00;;
19187;SDS011;9726;52.198;8.792;2023-03-13T00:36:30;29.93;;;5.30;;
19187;SDS011;9726;52.198;8.792;2023-03-13T00:38:59;48.40;;;5.83;;
19187;SDS011;9726;52.198;8.792;2023-03-13T00:41:28;32.03;;;5.00;;
19187;SDS011;9726;52.198;8.792;2023-03-13T00:43:55;29.30;;;4.93;;
19187;SDS011;9726;52.198;8.792;2023-03-13T00:46:24;38.43;;;5.67;;
19187;SDS011;9726;52.198;8.792;2023-03-13T00:48:51;37.37;;;7.47;;
19187;SDS011;9726;52.198;8.792;2023-03-13T00:51:19;41.47;;;5.73;;
19187;SDS011;9726;52.198;8.792;2023-03-13T00:53:47;31.63;;;7.20;;
19187;SDS011;9726;52.198;8.792;2023-03-13T00:56:15;31.73;;;5.17;;
19187;SDS011;9726;52.198;8.792;2023-03-13T00:58:43;31.00;;;6.73;;
19187;SDS011;9726;52.198;8.792;2023-03-13T01:01:30;51.73;;;6.57;;
19187;SDS011;9726;52.198;8.792;2023-03-13T01:04:03;30.40;;;6.00;;
19187;SDS011;9726;52.198;8.792;2023-03-13T01:06:32;27.40;;;5.87;;
19187;SDS011;9726;52.198;8.792;2023-03-13T01:09:00;26.97;;;6.70;;
19187;SDS011;9726;52.198;8.792;2023-03-13T01:11:29;26.77;;;4.60;;
19187;SDS011;9726;52.198;8.792;2023-03-13T01:13:59;25.10;;;4.63;;
19187;SDS011;9726;52.198;8.792;2023-03-13T01:16:27;38.37;;;7.37;;
19187;SDS011;9726;52.198;8.792;2023-03-13T01:18:57;30.80;;;5.57;;
19187;SDS011;9726;52.198;8.792;2023-03-13T01:21:25;36.57;;;6.23;;
19187;SDS011;9726;52.198;8.792;2023-03-13T01:23:53;25.03;;;4.10;;
19187;SDS011;9726;52.198;8.792;2023-03-13T01:26:20;29.83;;;4.50;;
19187;SDS011;9726;52.198;8.792;2023-03-13T01:28:48;37.53;;;5.20;;
19187;SDS011;9726;52.198;8.792;2023-03-13T01:31:20;30.93;;;5.77;;
19187;SDS011;9726;52.198;8.792;2023-03-13T01:33:49;32.50;;;4.83;;
19187;SDS011;9726;52.198;8.792;2023-03-13T01:36:17;28.07;;;4.97;;
19187;SDS011;9726;52.198;8.792;2023-03-13T01:38:46;33.47;;;5.63;;
19187;SDS011;9726;52.198;8.792;2023-03-13T01:41:14;28.23;;;5.40;;
19187;SDS011;9726;52.198;8.792;2023-03-13T01:43:42;30.40;;;4.53;;
19187;SDS011;9726;52.198;8.792;2023-03-13T01:46:12;37.23;;;4.97;;
19187;SDS011;9726;52.198;8.792;2023-03-13T01:48:50;27.90;;;4.90;;
19187;SDS011;9726;52.198;8.792;2023-03-13T01:51:24;43.27;;;6.47;;
19187;SDS011;9726;52.198;8.792;2023-03-13T01:53:58;26.27;;;5.57;;
19187;SDS011;9726;52.198;8.792;2023-03-13T01:56:29;38.57;;;5.73;;
19187;SDS011;9726;52.198;8.792;2023-03-13T01:58:58;29.90;;;5.13;;
19187;SDS011;9726;52.198;8.792;2023-03-13T02:01:26;26.63;;;4.17;;
19187;SDS011;9726;52.198;8.792;2023-03-13T02:03:54;32.13;;;6.27;;
19187;SDS011;9726;52.198;8.792;2023-03-13T02:06:23;37.93;;;5.73;;
19187;SDS011;9726;52.198;8.792;2023-03-13T02:08:53;39.87;;;6.03;;
19187;SDS011;9726;52.198;8.792;2023-03-13T02:11:23;34.47;;;6.07;;
19187;SDS011;9726;52.198;8.792;2023-03-13T02:13:51;37.13;;;5.27;;
19187;SDS011;9726;52.198;8.792;2023-03-13T02:16:20;37.13;;;6.83;;
19187;SDS011;9726;52.198;8.792;2023-03-13T02:18:48;34.17;;;6.63;;
19187;SDS011;9726;52.198;8.792;2023-03-13T02:22:05;26.70;;;5.40;;
19187;SDS011;9726;52.198;8.792;2023-03-13T02:26:34;32.70;;;5.07;;
19187;SDS011;9726;52.198;8.792;2023-03-13T02:29:01;23.43;;;4.70;;
19187;SDS011;9726;52.198;8.792;2023-03-13T02:31:29;28.43;;;5.60;;
19187;SDS011;9726;52.198;8.792;2023-03-13T02:33:58;31.47;;;5.00;;
19187;SDS011;9726;52.198;8.792;2023-03-13T02:36:27;26.53;;;5.50;;
19187;SDS011;9726;52.198;8.792;2023-03-13T02:38:58;38.53;;;5.77;;
19187;SDS011;9726;52.198;8.792;2023-03-13T02:41:28;28.97;;;5.40;;
19187;SDS011;9726;52.198;8.792;2023-03-13T02:43:57;30.03;;;4.07;;
19187;SDS011;9726;52.198;8.792;2023-03-13T02:46:25;28.47;;;5.67;;
19187;SDS011;9726;52.198;8.792;2023-03-13T02:48:54;34.47;;;6.73;;
19187;SDS011;9726;52.198;8.792;2023-03-13T02:51:31;27.63;;;5.20;;
19187;SDS011;9726;52.198;8.792;2023-03-13T02:54:00;34.10;;;5.07;;
19187;SDS011;9726;52.198;8.792;2023-03-13T02:56:29;27.37;;;5.10;;
19187;SDS011;9726;52.198;8.792;2023-03-13T02:58:58;39.87;;;4.93;;
19187;SDS011;9726;52.198;8.792;2023-03-13T03:01:26;30.37;;;4.70;;
19187;SDS011;9726;52.198;8.792;2023-03-13T03:03:53;43.67;;;4.90;;
19187;SDS011;9726;52.198;8.792;2023-03-13T03:06:21;23.47;;;5.33;;
19187;SDS011;9726;52.198;8.792;2023-03-13T03:08:49;31.17;;;5.30;;
19187;SDS011;9726;52.198;8.792;2023-03-13T03:11:17;35.33;;;4.63;;
19187;SDS011;9726;52.198;8.792;2023-03-13T03:13:49;31.67;;;4.10;;
19187;SDS011;9726;52.198;8.792;2023-03-13T03:16:17;32.70;;;4.57;;
19187;SDS011;9726;52.198;8.792;2023-03-13T03:18:46;30.27;;;5.40;;
19187;SDS011;9726;52.198;8.792;2023-03-13T03:21:13;30.00;;;5.20;;
19187;SDS011;9726;52.198;8.792;2023-03-13T03:23:41;35.53;;;5.30;;
19187;SDS011;9726;52.198;8.792;2023-03-13T03:26:08;27.40;;;4.40;;
19187;SDS011;9726;52.198;8.792;2023-03-13T03:28:37;34.40;;;4.27;;
19187;SDS011;9726;52.198;8.792;2023-03-13T03:31:10;30.70;;;5.23;;
19187;SDS011;9726;52.198;8.792;2023-03-13T03:33:38;28.23;;;4.60;;
19187;SDS011;9726;52.198;8.792;2023-03-13T03:36:13;31.83;;;5.10;;
19187;SDS011;9726;52.198;8.792;2023-03-13T03:38:42;45.40;;;5.77;;
19187;SDS011;9726;52.198;8.792;2023-03-13T03:41:13;28.40;;;6.40;;
19187;SDS011;9726;52.198;8.792;2023-03-13T03:43:41;38.53;;;6.07;;
19187;SDS011;9726;52.198;8.792;2023-03-13T03:46:11;35.73;;;4.17;;
19187;SDS011;9726;52.198;8.792;2023-03-13T03:48:38;32.53;;;4.80;;
19187;SDS011;9726;52.198;8.792;2023-03-13T03:51:07;25.83;;;5.07;;
19187;SDS011;9726;52.198;8.792;2023-03-13T03:53:38;34.60;;;4.70;;
19187;SDS011;9726;52.198;8.792;2023-03-13T03:56:06;26.60;;;5.90;;
19187;SDS011;9726;52.198;8.792;2023-03-13T03:58:38;27.60;;;4.23;;
19187;SDS011;9726;52.198;8.792;2023-03-13T04:01:16;37.30;;;4.80;;
19187;SDS011;9726;52.198;8.792;2023-03-13T04:03:43;29.67;;;4.63;;
19187;SDS011;9726;52.198;8.792;2023-03-13T04:06:12;21.40;;;4.10;;
19187;SDS011;9726;52.198;8.792;2023-03-13T04:08:40;24.10;;;3.87;;
19187;SDS011;9726;52.198;8.792;2023-03-13T04:11:10;30.77;;;4.30;;
19187;SDS011;9726;52.198;8.792;2023-03-13T04:13:42;31.13;;;4.93;;
19187;SDS011;9726;52.198;8.792;2023-03-13T04:16:09;24.33;;;5.63;;
19187;SDS011;9726;52.198;8.792;2023-03-13T04:18:39;21.10;;;3.00;;
19187;SDS011;9726;52.198;8.792;2023-03-13T04:21:07;24.43;;;5.03;;
19187;SDS011;9726;52.198;8.792;2023-03-13T04:23:48;22.33;;;4.33;;
19187;SDS011;9726;52.198;8.792;2023-03-13T04:26:16;30.37;;;4.20;;
19187;SDS011;9726;52.198;8.792;2023-03-13T04:28:45;23.63;;;4.53;;
19187;SDS011;9726;52.198;8.792;2023-03-13T04:31:17;18.83;;;3.50;;
19187;SDS011;9726;52.198;8.792;2023-03-13T04:34:07;28.20;;;4.23;;
19187;SDS011;9726;52.198;8.792;2023-03-13T04:36:55;22.53;;;3.77;;
19187;SDS011;9726;52.198;8.792;2023-03-13T04:39:39;22.37;;;3.80;;
19187;SDS011;9726;52.198;8.792;2023-03-13T04:42:19;21.50;;;3.60;;
19187;SDS011;9726;52.198;8.792;2023-03-13T04:44:57;32.20;;;4.73;;
19187;SDS011;9726;52.198;8.792;2023-03-13T04:47:37;21.73;;;4.13;;
19187;SDS011;9726;52.198;8.792;2023-03-13T04:50:25;27.17;;;3.77;;
19187;SDS011;9726;52.198;8.792;2023-03-13T04:53:11;18.70;;;3.17;;
19187;SDS011;9726;52.198;8.792;2023-03-13T04:55:55;16.57;;;4.10;;
19187;SDS011;9726;52.198;8.792;2023-03-13T04:58:42;23.43;;;3.93;;
19187;SDS011;9726;52.198;8.792;2023-03-13T05:01:30;22.60;;;4.57;;
19187;SDS011;9726;52.198;8.792;2023-03-13T05:04:14;21.87;;;4.87;;
19187;SDS011;9726;52.198;8.792;2023-03-13T05:06:55;19.83;;;2.83;;
19187;SDS011;9726;52.198;8.792;2023-03-13T05:09:45;16.10;;;2.57;;
19187;SDS011;9726;52.198;8.792;2023-03-13T05:12:32;18.13;;;3.43;;
19187;SDS011;9726;52.198;8.792;2023-03-13T05:15:13;15.87;;;3.00;;
19187;SDS011;9726;52.198;8.792;2023-03-13T05:17:40;16.27;;;3.10;;
19187;SDS011;9726;52.198;8.792;2023-03-13T05:20:22;10.83;;;2.90;;
19187;SDS011;9726;52.198;8.792;2023-03-13T05:23:00;12.10;;;2.37;;
19187;SDS011;9726;52.198;8.792;2023-03-13T05:25:54;11.03;;;3.13;;
19187;SDS011;9726;52.198;8.792;2023-03-13T05:28:42;10.37;;;3.30;;
19187;SDS011;9726;52.198;8.792;2023-03-13T05:31:28;10.80;;;2.47;;
19187;SDS011;9726;52.198;8.792;2023-03-13T05:34:17;5.50;;;2.30;;
19187;SDS011;9726;52.198;8.792;2023-03-13T05:37:03;14.60;;;3.47;;
19187;SDS011;9726;52.198;8.792;2023-03-13T05:39:38;11.97;;;2.73;;
19187;SDS011;9726;52.198;8.792;2023-03-13T05:42:34;11.97;;;3.57;;
19187;SDS011;9726;52.198;8.792;2023-03-13T05:45:15;9.50;;;2.50;;
19187;SDS011;9726;52.198;8.792;2023-03-13T05:47:53;9.23;;;2.80;;
19187;SDS011;9726;52.198;8.792;2023-03-13T05:50:26;8.90;;;2.70;;
19187;SDS011;9726;52.198;8.792;2023-03-13T05:53:03;6.50;;;2.60;;
19187;SDS011;9726;52.198;8.792;2023-03-13T05:55:38;9.07;;;3.87;;
19187;SDS011;9726;52.198;8.792;2023-03-13T05:58:35;8.33;;;2.97;;
19187;SDS011;9726;52.198;8.792;2023-03-13T06:01:12;8.63;;;2.67;;
19187;SDS011;9726;52.198;8.792;2023-03-13T06:03:40;10.97;;;3.33;;
19187;SDS011;9726;52.198;8.792;2023-03-13T06:06:09;7.17;;;3.83;;
19187;SDS011;9726;52.198;8.792;2023-03-13T06:08:43;11.47;;;3.50;;
19187;SDS011;9726;52.198;8.792;2023-03-13T06:11:11;5.10;;;2.80;;
19187;SDS011;9726;52.198;8.792;2023-03-13T06:13:39;7.43;;;3.50;;
19187;SDS011;9726;52.198;8.792;2023-03-13T06:16:39;5.70;;;2.83;;
19187;SDS011;9726;52.198;8.792;2023-03-13T06:19:18;3.90;;;2.30;;
19187;SDS011;9726;52.198;8.792;2023-03-13T06:21:46;8.27;;;2.97;;
19187;SDS011;9726;52.198;8.792;2023-03-13T06:24:13;4.87;;;2.53;;
19187;SDS011;9726;52.198;8.792;2023-03-13T06:26:41;5.50;;;2.50;;
19187;SDS011;9726;52.198;8.792;2023-03-13T06:29:11;4.63;;;2.53;;
19187;SDS011;9726;52.198;8.792;2023-03-13T06:31:39;7.63;;;3.17;;
19187;SDS011;9726;52.198;8.792;2023-03-13T06:34:07;9.90;;;3.40;;
19187;SDS011;9726;52.198;8.792;2023-03-13T06:36:34;8.97;;;4.00;;
19187;SDS011;9726;52.198;8.792;2023-03-13T06:39:02;5.43;;;3.40;;
19187;SDS011;9726;52.198;8.792;2023-03-13T06:41:30;5.20;;;3.37;;
19187;SDS011;9726;52.198;8.792;2023-03-13T06:43:58;5.83;;;4.60;;
19187;SDS011;9726;52.198;8.792;2023-03-13T06:46:26;8.00;;;4.50;;
19187;SDS011;9726;52.198;8.792;2023-03-13T06:48:53;9.27;;;4.33;;
19187;SDS011;9726;52.198;8.792;2023-03-13T06:51:21;6.83;;;4.47;;
19187;SDS011;9726;52.198;8.792;2023-03-13T06:53:48;5.77;;;3.60;;
19187;SDS011;9726;52.198;8.792;2023-03-13T06:56:17;7.73;;;4.10;;
19187;SDS011;9726;52.198;8.792;2023-03-13T06:58:49;8.30;;;5.17;;
19187;SDS011;9726;52.198;8.792;2023-03-13T07:01:17;9.27;;;5.50;;
19187;SDS011;9726;52.198;8.792;2023-03-13T07:03:45;7.90;;;5.57;;
19187;SDS011;9726;52.198;8.792;2023-03-13T07:06:14;7.30;;;5.53;;
19187;SDS011;9726;52.198;8.792;2023-03-13T07:08:41;8.50;;;5.50;;
19187;SDS011;9726;52.198;8.792;2023-03-13T07:11:10;8.73;;;6.30;;
19187;SDS011;9726;52.198;8.792;2023-03-13T07:13:38;9.10;;;7.13;;
19187;SDS011;9726;52.198;8.792;2023-03-13T07:16:07;8.73;;;6.80;;
19187;SDS011;9726;52.198;8.792;2023-03-13T07:18:35;9.37;;;7.57;;
19187;SDS011;9726;52.198;8.792;2023-03-13T07:21:04;13.37;;;8.27;;
19187;SDS011;9726;52.198;8.792;2023-03-13T07:23:32;12.20;;;8.70;;
19187;SDS011;9726;52.198;8.792;2023-03-13T07:26:01;11.40;;;8.47;;
19187;SDS011;9726;52.198;8.792;2023-03-13T07:28:30;9.33;;;7.70;;
19187;SDS011;9726;52.198;8.792;2023-03-13T07:31:10;13.13;;;8.93;;
19187;SDS011;9726;52.198;8.792;2023-03-13T07:33:38;13.70;;;8.73;;
19187;SDS011;9726;52.198;8.792;2023-03-13T07:36:06;13.13;;;8.60;;
19187;SDS011;9726;52.198;8.792;2023-03-13T07:38:34;8.90;;;7.90;;
19187;SDS011;9726;52.198;8.792;2023-03-13T07:41:02;15.10;;;7.20;;
19187;SDS011;9726;52.198;8.792;2023-03-13T07:43:29;14.07;;;8.10;;
19187;SDS011;9726;52.198;8.792;2023-03-13T07:46:01;10.43;;;8.20;;
19187;SDS011;9726;52.198;8.792;2023-03-13T07:48:30;8.10;;;6.23;;
19187;SDS011;9726;52.198;8.792;2023-03-13T07:50:58;8.67;;;6.73;;
19187;SDS011;9726;52.198;8.792;2023-03-13T07:53:25;8.07;;;7.17;;
19187;SDS011;9726;52.198;8.792;2023-03-13T07:56:04;11.10;;;6.47;;
19187;SDS011;9726;52.198;8.792;2023-03-13T07:58:32;11.40;;;6.63;;
19187;SDS011;9726;52.198;8.792;2023-03-13T08:01:01;9.60;;;6.27;;
19187;SDS011;9726;52.198;8.792;2023-03-13T08:03:34;12.03;;;6.40;;
19187;SDS011;9726;52.198;8.792;2023-03-13T08:06:02;8.67;;;5.97;;
19187;SDS011;9726;52.198;8.792;2023-03-13T08:08:31;7.07;;;5.43;;
19187;SDS011;9726;52.198;8.792;2023-03-13T08:11:02;12.27;;;6.40;;
19187;SDS011;9726;52.198;8.792;2023-03-13T08:13:30;9.00;;;6.87;;
19187;SDS011;9726;52.198;8.792;2023-03-13T08:16:08;8.53;;;4.10;;
19187;SDS011;9726;52.198;8.792;2023-03-13T08:18:37;7.30;;;4.70;;
19187;SDS011;9726;52.198;8.792;2023-03-13T08:21:10;8.97;;;4.80;;
19187;SDS011;9726;52.198;8.792;2023-03-13T08:23:37;5.90;;;4.80;;
19187;SDS011;9726;52.198;8.792;2023-03-13T08:26:06;6.40;;;4.07;;
19187;SDS011;9726;52.198;8.792;2023-03-13T08:28:34;5.87;;;4.63;;
19187;SDS011;9726;52.198;8.792;2023-03-13T08:31:08;6.67;;;4.33;;
19187;SDS011;9726;52.198;8.792;2023-03-13T08:33:36;9.57;;;3.63;;
19187;SDS011;9726;52.198;8.792;2023-03-13T08:36:17;5.10;;;4.03;;
19187;SDS011;9726;52.198;8.792;2023-03-13T08:38:46;4.20;;;3.00;;
19187;SDS011;9726;52.198;8.792;2023-03-13T08:41:15;8.07;;;3.63;;
19187;SDS011;9726;52.198;8.792;2023-03-13T08:43:42;8.83;;;3.00;;
19187;SDS011;9726;52.198;8.792;2023-03-13T08:46:10;6.60;;;3.07;;
19187;SDS011;9726;52.198;8.792;2023-03-13T08:48:38;9.00;;;2.97;;
19187;SDS011;9726;52.198;8.792;2023-03-13T08:51:07;6.93;;;3.20;;
19187;SDS011;9726;52.198;8.792;2023-03-13T08:53:35;6.97;;;2.90;;
19187;SDS011;9726;52.198;8.792;2023-03-13T08:56:03;4.57;;;3.03;;
19187;SDS011;9726;52.198;8.792;2023-03-13T08:58:31;8.70;;;3.30;;
19187;SDS011;9726;52.198;8.792;2023-03-13T09:01:02;5.17;;;3.10;;
19187;SDS011;9726;52.198;8.792;2023-03-13T09:03:30;9.13;;;3.33;;
19187;SDS011;9726;52.198;8.792;2023-03-13T09:05:58;7.37;;;2.90;;
19187;SDS011;9726;52.198;8.792;2023-03-13T09:08:26;3.23;;;2.50;;
19187;SDS011;9726;52.198;8.792;2023-03-13T09:10:57;7.82;;;3.70;;
19187;SDS011;9726;52.198;8.792;2023-03-13T09:13:25;5.63;;;3.23;;
19187;SDS011;9726;52.198;8.792;2023-03-13T09:15:54;4.67;;;2.50;;
19187;SDS011;9726;52.198;8.792;2023-03-13T09:18:22;6.07;;;2.33;;
19187;SDS011;9726;52.198;8.792;2023-03-13T09:20:50;7.97;;;2.63;;
19187;SDS011;9726;52.198;8.792;2023-03-13T09:23:17;4.37;;;2.57;;
19187;SDS011;9726;52.198;8.792;2023-03-13T09:25:45;8.20;;;2.40;;
19187;SDS011;9726;52.198;8.792;2023-03-13T09:28:13;7.10;;;2.43;;
19187;SDS011;9726;52.198;8.792;2023-03-13T09:30:40;9.67;;;2.43;;
19187;SDS011;9726;52.198;8.792;2023-03-13T09:33:08;6.10;;;2.80;;
19187;SDS011;9726;52.198;8.792;2023-03-13T09:35:37;8.47;;;3.40;;
19187;SDS011;9726;52.198;8.792;2023-03-13T09:38:05;6.13;;;2.60;;
19187;SDS011;9726;52.198;8.792;2023-03-13T09:40:36;6.73;;;2.53;;
19187;SDS011;9726;52.198;8.792;2023-03-13T09:43:10;8.83;;;2.80;;
19187;SDS011;9726;52.198;8.792;2023-03-13T09:45:40;4.77;;;3.10;;
19187;SDS011;9726;52.198;8.792;2023-03-13T09:48:25;5.73;;;3.67;;
19187;SDS011;9726;52.198;8.792;2023-03-13T09:51:37;5.50;;;3.57;;
19187;SDS011;9726;52.198;8.792;2023-03-13T09:56:45;7.10;;;2.97;;
19187;SDS011;9726;52.198;8.792;2023-03-13T09:59:16;14.10;;;3.53;;
19187;SDS011;9726;52.198;8.792;2023-03-13T10:01:46;8.40;;;3.53;;
19187;SDS011;9726;52.198;8.792;2023-03-13T10:06:44;6.53;;;3.00;;
19187;SDS011;9726;52.198;8.792;2023-03-13T10:09:15;10.13;;;3.17;;
19187;SDS011;9726;52.198;8.792;2023-03-13T10:11:55;6.23;;;2.63;;
19187;SDS011;9726;52.198;8.792;2023-03-13T10:17:20;7.20;;;2.47;;
19187;SDS011;9726;52.198;8.792;2023-03-13T10:19:53;6.43;;;2.67;;
19187;SDS011;9726;52.198;8.792;2023-03-13T10:22:23;12.23;;;2.77;;
19187;SDS011;9726;52.198;8.792;2023-03-13T10:27:19;10.10;;;2.60;;
19187;SDS011;9726;52.198;8.792;2023-03-13T10:29:46;7.17;;;2.67;;
19187;SDS011;9726;52.198;8.792;2023-03-13T10:32:15;3.53;;;1.93;;
19187;SDS011;9726;52.198;8.792;2023-03-13T10:35:04;12.97;;;3.67;;
19187;SDS011;9726;52.198;8.792;2023-03-13T10:37:32;10.20;;;2.87;;
19187;SDS011;9726;52.198;8.792;2023-03-13T10:42:43;6.30;;;2.07;;
19187;SDS011;9726;52.198;8.792;2023-03-13T10:45:18;7.00;;;2.00;;
19187;SDS011;9726;52.198;8.792;2023-03-13T10:47:54;10.00;;;2.53;;
19187;SDS011;9726;52.198;8.792;2023-03-13T10:50:23;8.60;;;2.50;;
19187;SDS011;9726;52.198;8.792;2023-03-13T10:52:50;8.17;;;2.20;;
19187;SDS011;9726;52.198;8.792;2023-03-13T10:55:19;8.57;;;2.40;;
19187;SDS011;9726;52.198;8.792;2023-03-13T11:00:28;6.27;;;2.40;;
19187;SDS011;9726;52.198;8.792;2023-03-13T11:03:16;5.07;;;2.07;;
19187;SDS011;9726;52.198;8.792;2023-03-13T11:05:57;5.90;;;1.67;;
19187;SDS011;9726;52.198;8.792;2023-03-13T11:08:33;5.27;;;2.53;;
19187;SDS011;9726;52.198;8.792;2023-03-13T11:11:02;4.77;;;2.27;;
19187;SDS011;9726;52.198;8.792;2023-03-13T11:16:22;7.10;;;2.57;;
19187;SDS011;9726;52.198;8.792;2023-03-13T11:18:53;5.53;;;2.23;;
19187;SDS011;9726;52.198;8.792;2023-03-13T11:21:23;16.93;;;2.57;;
19187;SDS011;9726;52.198;8.792;2023-03-13T11:23:57;6.10;;;2.10;;
19187;SDS011;9726;52.198;8.792;2023-03-13T11:26:32;5.57;;;1.90;;
19187;SDS011;9726;52.198;8.792;2023-03-13T11:31:33;8.03;;;2.40;;
19187;SDS011;9726;52.198;8.792;2023-03-13T11:44:22;4.53;;;1.90;;
19187;SDS011;9726;52.198;8.792;2023-03-13T11:54:54;5.33;;;1.63;;
19187;SDS011;9726;52.198;8.792;2023-03-13T11:57:24;4.80;;;1.90;;
19187;SDS011;9726;52.198;8.792;2023-03-13T12:00:02;6.60;;;1.90;;
19187;SDS011;9726;52.198;8.792;2023-03-13T12:02:38;4.07;;;1.67;;
19187;SDS011;9726;52.198;8.792;2023-03-13T12:05:11;5.83;;;1.93;;
19187;SDS011;9726;52.198;8.792;2023-03-13T12:07:41;2.00;;;1.40;;
19187;SDS011;9726;52.198;8.792;2023-03-13T12:10:14;4.53;;;1.40;;
19187;SDS011;9726;52.198;8.792;2023-03-13T12:15:21;3.07;;;0.97;;
19187;SDS011;9726;52.198;8.792;2023-03-13T12:20:52;4.13;;;1.50;;
19187;SDS011;9726;52.198;8.792;2023-03-13T12:26:04;3.70;;;1.70;;
19187;SDS011;9726;52.198;8.792;2023-03-13T12:44:39;4.50;;;1.87;;
19187;SDS011;9726;52.198;8.792;2023-03-13T12:47:17;5.60;;;2.03;;
19187;SDS011;9726;52.198;8.792;2023-03-13T13:00:21;2.87;;;1.30;;
19187;SDS011;9726;52.198;8.792;2023-03-13T13:03:05;3.10;;;1.60;;
19187;SDS011;9726;52.198;8.792;2023-03-13T13:05:36;3.67;;;1.70;;
19187;SDS011;9726;52.198;8.792;2023-03-13T13:08:03;1.73;;;1.10;;
19187;SDS011;9726;52.198;8.792;2023-03-13T13:10:31;6.22;;;1.45;;
19187;SDS011;9726;52.198;8.792;2023-03-13T13:15:45;2.50;;;1.00;;
19187;SDS011;9726;52.198;8.792;2023-03-13T13:18:23;2.07;;;1.00;;
19187;SDS011;9726;52.198;8.792;2023-03-13T13:23:37;5.63;;;1.00;;
19187;SDS011;9726;52.198;8.792;2023-03-13T13:28:56;2.10;;;0.87;;
19187;SDS011;9726;52.198;8.792;2023-03-13T13:31:44;1.70;;;0.97;;
19187;SDS011;9726;52.198;8.792;2023-03-13T13:37:04;4.60;;;0.90;;
19187;SDS011;9726;52.198;8.792;2023-03-13T13:39:50;5.33;;;1.00;;
19187;SDS011;9726;52.198;8.792;2023-03-13T13:47:45;2.07;;;1.17;;
19187;SDS011;9726;52.198;8.792;2023-03-13T13:50:17;2.40;;;0.83;;
19187;SDS011;9726;52.198;8.792;2023-03-13T13:52:44;2.63;;;1.00;;
19187;SDS011;9726;52.198;8.792;2023-03-13T13:58:17;0.73;;;0.50;;
19187;SDS011;9726;52.198;8.792;2023-03-13T14:00:47;7.47;;;0.87;;
19187;SDS011;9726;52.198;8.792;2023-03-13T14:03:22;1.90;;;0.97;;
19187;SDS011;9726;52.198;8.792;2023-03-13T14:05:51;1.10;;;0.80;;
19187;SDS011;9726;52.198;8.792;2023-03-13T14:08:23;5.40;;;0.90;;
19187;SDS011;9726;52.198;8.792;2023-03-13T14:10:53;3.90;;;1.00;;
19187;SDS011;9726;52.198;8.792;2023-03-13T14:13:21;2.67;;;1.33;;
19187;SDS011;9726;52.198;8.792;2023-03-13T14:15:50;0.83;;;0.60;;
19187;SDS011;9726;52.198;8.792;2023-03-13T14:18:22;1.00;;;0.80;;
19187;SDS011;9726;52.198;8.792;2023-03-13T14:23:28;3.70;;;0.83;;
19187;SDS011;9726;52.198;8.792;2023-03-13T14:25:57;0.90;;;0.60;;
19187;SDS011;9726;52.198;8.792;2023-03-13T14:28:25;1.67;;;0.80;;
19187;SDS011;9726;52.198;8.792;2023-03-13T14:30:55;5.83;;;0.77;;
19187;SDS011;9726;52.198;8.792;2023-03-13T14:33:23;7.20;;;1.10;;
19187;SDS011;9726;52.198;8.792;2023-03-13T14:35:52;1.20;;;0.77;;
19187;SDS011;9726;52.198;8.792;2023-03-13T14:38:21;1.63;;;0.90;;
19187;SDS011;9726;52.198;8.792;2023-03-13T14:40:50;7.83;;;1.13;;
19187;SDS011;9726;52.198;8.792;2023-03-13T14:43:24;2.57;;;1.10;;
19187;SDS011;9726;52.198;8.792;2023-03-13T14:45:53;3.27;;;1.23;;
19187;SDS011;9726;52.198;8.792;2023-03-13T14:48:30;2.30;;;1.23;;
19187;SDS011;9726;52.198;8.792;2023-03-13T14:51:02;2.77;;;1.10;;
19187;SDS011;9726;52.198;8.792;2023-03-13T14:53:57;1.40;;;0.83;;
19187;SDS011;9726;52.198;8.792;2023-03-13T14:56:32;1.50;;;0.90;;
19187;SDS011;9726;52.198;8.792;2023-03-13T15:01:35;1.33;;;0.90;;
19187;SDS011;9726;52.198;8.792;2023-03-13T15:04:02;3.17;;;0.97;;
19187;SDS011;9726;52.198;8.792;2023-03-13T15:06:29;7.53;;;1.10;;
19187;SDS011;9726;52.198;8.792;2023-03-13T15:11:34;1.70;;;0.60;;
19187;SDS011;9726;52.198;8.792;2023-03-13T15:14:02;5.83;;;0.87;;
19187;SDS011;9726;52.198;8.792;2023-03-13T15:16:30;1.27;;;0.80;;
19187;SDS011;9726;52.198;8.792;2023-03-13T15:18:57;4.77;;;0.70;;
19187;SDS011;9726;52.198;8.792;2023-03-13T15:21:26;1.03;;;0.60;;
19187;SDS011;9726;52.198;8.792;2023-03-13T15:24:10;1.87;;;0.90;;
19187;SDS011;9726;52.198;8.792;2023-03-13T15:26:38;1.40;;;0.80;;
19187;SDS011;9726;52.198;8.792;2023-03-13T15:29:06;1.93;;;0.67;;
19187;SDS011;9726;52.198;8.792;2023-03-13T15:31:33;6.80;;;1.00;;
19187;SDS011;9726;52.198;8.792;2023-03-13T15:34:01;1.70;;;0.87;;
19187;SDS011;9726;52.198;8.792;2023-03-13T15:36:30;2.10;;;0.93;;
19187;SDS011;9726;52.198;8.792;2023-03-13T15:38:57;3.70;;;1.60;;
19187;SDS011;9726;52.198;8.792;2023-03-13T15:41:25;1.23;;;0.70;;
19187;SDS011;9726;52.198;8.792;2023-03-13T15:43:53;4.07;;;0.90;;
19187;SDS011;9726;52.198;8.792;2023-03-13T15:46:22;1.73;;;1.00;;
19187;SDS011;9726;52.198;8.792;2023-03-13T15:48:50;6.10;;;1.23;;
19187;SDS011;9726;52.198;8.792;2023-03-13T15:51:19;5.10;;;0.93;;
19187;SDS011;9726;52.198;8.792;2023-03-13T15:53:46;4.93;;;1.77;;
19187;SDS011;9726;52.198;8.792;2023-03-13T15:56:15;1.90;;;0.70;;
19187;SDS011;9726;52.198;8.792;2023-03-13T15:58:44;5.63;;;1.07;;
19187;SDS011;9726;52.198;8.792;2023-03-13T16:01:12;1.70;;;0.83;;
19187;SDS011;9726;52.198;8.792;2023-03-13T16:03:40;1.50;;;0.90;;
19187;SDS011;9726;52.198;8.792;2023-03-13T16:08:38;0.93;;;0.93;;
19187;SDS011;9726;52.198;8.792;2023-03-13T16:11:05;2.30;;;1.07;;
19187;SDS011;9726;52.198;8.792;2023-03-13T16:13:33;3.87;;;1.00;;
19187;SDS011;9726;52.198;8.792;2023-03-13T16:16:00;7.40;;;1.00;;
19187;SDS011;9726;52.198;8.792;2023-03-13T16:18:28;3.03;;;0.63;;
19187;SDS011;9726;52.198;8.792;2023-03-13T16:20:55;4.47;;;0.93;;
19187;SDS011;9726;52.198;8.792;2023-03-13T16:23:22;2.23;;;1.00;;
19187;SDS011;9726;52.198;8.792;2023-03-13T16:25:50;4.43;;;0.90;;
19187;SDS011;9726;52.198;8.792;2023-03-13T16:28:17;1.47;;;0.90;;
19187;SDS011;9726;52.198;8.792;2023-03-13T16:30:45;7.10;;;1.37;;
19187;SDS011;9726;52.198;8.792;2023-03-13T16:33:15;6.93;;;1.70;;
19187;SDS011;9726;52.198;8.792;2023-03-13T16:35:42;5.00;;;1.27;;
19187;SDS011;9726;52.198;8.792;2023-03-13T16:38:10;3.07;;;1.17;;
19187;SDS011;9726;52.198;8.792;2023-03-13T16:40:37;2.60;;;0.93;;
19187;SDS011;9726;52.198;8.792;2023-03-13T16:43:05;4.67;;;1.27;;
19187;SDS011;9726;52.198;8.792;2023-03-13T16:45:33;3.73;;;1.20;;
19187;SDS011;9726;52.198;8.792;2023-03-13T16:48:00;1.77;;;1.13;;
19187;SDS011;9726;52.198;8.792;2023-03-13T16:50:31;2.17;;;0.90;;
19187;SDS011;9726;52.198;8.792;2023-03-13T16:52:58;2.73;;;0.90;;
19187;SDS011;9726;52.198;8.792;2023-03-13T16:55:26;2.43;;;1.03;;
19187;SDS011;9726;52.198;8.792;2023-03-13T16:57:57;4.00;;;1.40;;
19187;SDS011;9726;52.198;8.792;2023-03-13T17:00:25;6.47;;;1.67;;
19187;SDS011;9726;52.198;8.792;2023-03-13T17:02:53;3.87;;;1.20;;
19187;SDS011;9726;52.198;8.792;2023-03-13T17:05:23;2.27;;;1.23;;
19187;SDS011;9726;52.198;8.792;2023-03-13T17:07:51;7.40;;;1.47;;